Time;durP1;ratioP1;P1;durP2;ratioP2;P2;SDS_P1;SDS_P2;PMS_P1;PMS_P2;Temp;Humidity;BMP_temperature;BMP_pressure;BME280_temperature;BME280_humidity;BME280_pressure;Samples;Min_cycle;Max_cycle;Signal;HPM_P1;HPM_P2
2023/12/07 00:02:38;;;;;;;11.43;9.30;;;;;;;1.30;100.00;98699.00;15289733;19;20035;-79
2023/12/07 00:08:09;;;;;;;11.13;10.07;;;;;;;1.30;100.00;98705.16;15290018;19;20018;-78
2023/12/07 00:13:34;;;;;;;11.40;10.30;;;;;;;1.32;100.00;98710.38;15281165;19;20022;-78
2023/12/07 00:19:02;;;;;;;11.07;10.07;;;;;;;1.32;100.00;98716.53;15294331;19;20019;-79
2023/12/07 00:24:28;;;;;;;10.82;9.73;;;;;;;1.33;100.00;98720.91;15295466;19;20018;-78
2023/12/07 00:29:53;;;;;;;11.85;10.70;;;;;;;1.33;100.00;98723.56;15290346;19;20088;-79
2023/12/07 00:35:22;;;;;;;10.98;9.88;;;;;;;1.33;100.00;98723.56;15312666;19;20027;-80
2023/12/07 00:40:46;;;;;;;11.70;10.50;;;;;;;1.31;100.00;98721.94;15021635;19;5001341;-79
2023/12/07 00:46:10;;;;;;;12.80;11.50;;;;;;;1.33;100.00;98725.38;15281192;19;20032;-80
2023/12/07 00:51:38;;;;;;;11.80;10.60;;;;;;;1.33;100.00;98734.16;15283458;19;20055;-80
2023/12/07 00:57:04;;;;;;;11.55;10.45;;;;;;;1.33;100.00;98735.97;15302352;19;20521;-80
2023/12/07 01:02:28;;;;;;;11.77;10.60;;;;;;;1.33;100.00;98742.13;15278707;19;20046;-80
2023/12/07 01:08:02;;;;;;;12.10;10.90;;;;;;;1.33;100.00;98741.28;15302403;19;20019;-79
2023/12/07 01:13:26;;;;;;;12.13;10.95;;;;;;;1.35;100.00;98747.38;15298935;19;20355;-80
2023/12/07 01:18:51;;;;;;;11.98;10.88;;;;;;;1.34;100.00;98754.47;15287181;19;20043;-78
2023/12/07 01:24:19;;;;;;;11.18;10.07;;;;;;;1.34;100.00;98754.47;15281380;19;20018;-79
2023/12/07 01:29:44;;;;;;;12.07;10.98;;;;;;;1.33;100.00;98766.03;15290017;19;20356;-79
2023/12/07 01:35:11;;;;;;;12.30;11.10;;;;;;;1.34;100.00;98774.84;15293731;19;20011;-79
2023/12/07 01:40:39;;;;;;;12.02;10.82;;;;;;;1.36;100.00;98791.53;15295646;19;20017;-80
2023/12/07 01:46:05;;;;;;;10.43;9.40;;;;;;;1.34;100.00;98788.97;15295284;19;20042;-80
2023/12/07 01:51:30;;;;;;;9.90;8.95;;;;;;;1.36;100.00;98788.88;15290134;19;20022;-80
2023/12/07 01:56:57;;;;;;;9.48;8.57;;;;;;;1.38;100.00;98802.91;15293341;19;20343;-80
2023/12/07 02:02:23;;;;;;;8.88;8.07;;;;;;;1.40;100.00;98801.00;15289906;19;20054;-79
2023/12/07 02:07:55;;;;;;;10.45;9.45;;;;;;;1.39;100.00;98801.97;15285636;19;20892;-81
2023/12/07 02:13:23;;;;;;;9.48;8.52;;;;;;;1.36;100.00;98795.03;14781848;19;10000386;-78
2023/12/07 02:18:54;;;;;;;10.20;9.10;;;;;;;1.35;100.00;98806.59;15308019;19;20372;-80
2023/12/07 02:24:24;;;;;;;10.05;9.10;;;;;;;1.34;100.00;98812.88;15320215;19;20010;-78
2023/12/07 02:29:52;;;;;;;9.48;8.52;;;;;;;1.32;100.00;98814.75;15317088;19;20011;-78
2023/12/07 02:35:18;;;;;;;11.48;8.35;;;;;;;1.31;100.00;98815.69;15308397;19;20022;-81
2023/12/07 02:40:50;;;;;;;9.65;8.75;;;;;;;1.31;100.00;98814.84;15288833;19;20406;-90
2023/12/07 02:46:18;;;;;;;9.10;8.20;;;;;;;1.29;100.00;98830.88;15300153;19;20029;-85
2023/12/07 02:51:43;;;;;;;8.02;7.22;;;;;;;1.28;100.00;98830.97;15317015;19;20027;-90
2023/12/07 02:57:07;;;;;;;7.40;6.70;;;;;;;1.25;100.00;98821.38;15307878;19;20018;-90
2023/12/07 03:02:35;;;;;;;6.18;5.57;;;;;;;1.23;100.00;98828.59;15325473;19;20030;-89
2023/12/07 03:07:59;;;;;;;6.10;5.50;;;;;;;1.20;100.00;98834.06;15292515;19;20014;-87
2023/12/07 03:13:24;;;;;;;6.10;5.47;;;;;;;1.17;100.00;98829.81;15295206;19;20012;-85
2023/12/07 03:18:51;;;;;;;7.18;6.20;;;;;;;1.14;100.00;98835.28;15289882;19;20014;-90
2023/12/07 03:24:20;;;;;;;7.28;6.35;;;;;;;1.14;100.00;98835.28;15280981;19;20010;-91
2023/12/07 03:29:45;;;;;;;8.18;7.38;;;;;;;1.10;100.00;98833.78;15287536;19;20038;-90
2023/12/07 03:35:13;;;;;;;8.05;7.25;;;;;;;1.10;100.00;98846.19;15289875;19;20022;-89
2023/12/07 03:40:47;;;;;;;8.68;7.68;;;;;;;1.11;100.00;98839.94;15285947;19;20022;-92
2023/12/07 03:46:13;;;;;;;8.52;7.65;;;;;;;1.10;100.00;98841.75;15289959;19;20073;-89
2023/12/07 03:51:41;;;;;;;7.95;7.15;;;;;;;1.10;100.00;98848.84;15286534;19;20014;-91
2023/12/07 03:57:06;;;;;;;8.80;7.47;;;;;;;1.11;100.00;98851.41;15285483;19;20638;-90
2023/12/07 04:02:42;;;;;;;9.02;7.50;;;;;;;1.10;100.00;98852.34;15314857;19;20045;-86
2023/12/07 04:08:13;;;;;;;9.13;8.23;;;;;;;1.09;100.00;98858.59;15351952;19;20010;-84
2023/12/07 04:13:39;;;;;;;9.02;7.43;;;;;;;1.08;100.00;98862.19;15354400;19;20006;-86
2023/12/07 04:25:07;;;;;;;8.40;7.60;;;;;;;1.08;100.00;98860.38;15363568;19;20022;-85
2023/12/07 04:36:20;;;;;;;8.23;7.32;;;;;;;1.12;100.00;98873.50;15293597;19;20014;-86
2023/12/07 04:41:52;;;;;;;8.27;7.47;;;;;;;1.13;100.00;98876.03;15287312;19;20011;-88
2023/12/07 04:47:16;;;;;;;7.32;6.63;;;;;;;1.11;100.00;98885.91;15289346;19;20024;-89
2023/12/07 04:52:44;;;;;;;7.90;6.10;;;;;;;1.13;100.00;98881.34;15284882;19;20503;-86
2023/12/07 04:58:09;;;;;;;7.50;6.70;;;;;;;1.13;100.00;98883.16;15285244;19;20478;-86
2023/12/07 05:03:34;;;;;;;7.53;6.82;;;;;;;1.14;100.00;98891.03;15281039;19;20407;-85
2023/12/07 05:09:01;;;;;;;6.90;6.30;;;;;;;1.15;100.00;98883.94;15286321;19;20058;-87
2023/12/07 05:14:26;;;;;;;6.28;5.68;;;;;;;1.17;100.00;98888.19;15290660;19;20597;-88
2023/12/07 05:19:52;;;;;;;9.20;5.95;;;;;;;1.19;100.00;98886.31;15291375;19;20014;-91
2023/12/07 05:25:19;;;;;;;7.40;6.25;;;;;;;1.21;100.00;98889.72;15288517;19;20054;-88
2023/12/07 05:30:43;;;;;;;7.45;6.47;;;;;;;1.22;100.00;98896.75;15294704;19;20089;-90
2023/12/07 05:36:09;;;;;;;8.07;7.00;;;;;;;1.23;100.00;98909.06;15296011;19;20250;-89
2023/12/07 05:41:43;;;;;;;9.10;6.90;;;;;;;1.26;100.00;98907.16;15316478;19;20071;-89
2023/12/07 05:47:07;;;;;;;7.28;6.05;;;;;;;1.26;100.00;98901.84;15289837;19;20108;-89
2023/12/07 05:52:32;;;;;;;7.88;6.82;;;;;;;1.27;100.00;98906.22;15295127;19;20006;-89
2023/12/07 05:57:59;;;;;;;7.75;6.90;;;;;;;1.27;100.00;98900.91;15289924;19;20023;-88
2023/12/07 06:03:25;;;;;;;8.18;6.50;;;;;;;1.28;100.00;98913.25;15315727;19;20018;-90
2023/12/07 06:08:51;;;;;;;8.10;7.30;;;;;;;1.28;100.00;98916.78;15355431;19;20024;-88
2023/12/07 06:14:19;;;;;;;8.25;7.45;;;;;;;1.27;100.00;98915.06;15357455;19;19999;-88
2023/12/07 06:19:43;;;;;;;8.55;7.40;;;;;;;1.26;100.00;98921.31;15361849;19;20021;-89
2023/12/07 06:25:08;;;;;;;8.27;7.45;;;;;;;1.25;100.00;98910.75;15336011;19;20022;-90
2023/12/07 06:30:37;;;;;;;8.48;7.65;;;;;;;1.24;100.00;98917.88;15290727;19;20007;-89
2023/12/07 06:36:01;;;;;;;8.70;7.90;;;;;;;1.23;100.00;98922.31;15302523;19;20042;-88
2023/12/07 06:41:33;;;;;;;7.93;7.13;;;;;;;1.26;100.00;98923.09;15290225;19;20014;-89
2023/12/07 06:47:03;;;;;;;9.75;8.30;;;;;;;1.27;100.00;98931.00;15347323;19;20452;-87
2023/12/07 06:52:28;;;;;;;10.27;9.10;;;;;;;1.28;100.00;98926.50;15290153;19;20521;-88
2023/12/07 06:57:52;;;;;;;11.52;9.82;;;;;;;1.28;100.00;98931.81;15292319;19;20014;-88
2023/12/07 07:03:21;;;;;;;11.70;9.65;;;;;;;1.29;100.00;98936.19;15292359;19;20019;-89
2023/12/07 07:08:45;;;;;;;14.73;10.05;;;;;;;1.27;100.00;98938.94;15288829;19;20082;-89
2023/12/07 07:14:10;;;;;;;10.55;9.55;;;;;;;1.27;100.00;98952.22;15286367;19;20014;-89
2023/12/07 07:19:37;;;;;;;11.30;10.20;;;;;;;1.28;100.00;98947.75;15317530;19;20011;-87
2023/12/07 07:25:02;;;;;;;11.27;10.10;;;;;;;1.28;100.00;98955.72;15297634;19;20022;-89
2023/12/07 07:30:27;;;;;;;13.75;10.55;;;;;;;1.25;100.00;98962.06;15296016;19;20015;-90
2023/12/07 07:35:55;;;;;;;15.40;10.20;;;;;;;1.21;100.00;98964.06;15295419;19;20082;-87
2023/12/07 07:41:27;;;;;;;11.32;10.13;;;;;;;1.18;100.00;98969.53;15285777;19;20105;-87
2023/12/07 07:46:51;;;;;;;11.57;9.52;;;;;;;1.18;100.00;98968.66;15283210;19;20029;-87
2023/12/07 07:52:19;;;;;;;11.20;9.98;;;;;;;1.19;100.00;98976.53;15291243;19;20546;-86
2023/12/07 07:57:45;;;;;;;11.40;10.30;;;;;;;1.19;100.00;98971.25;15287269;19;20082;-86
2023/12/07 08:03:10;;;;;;;11.77;10.10;;;;;;;1.21;100.00;98972.00;15294347;19;20018;-88
2023/12/07 08:08:37;;;;;;;12.13;10.27;;;;;;;1.23;100.00;98978.06;15296141;19;20010;-88
2023/12/07 08:14:03;;;;;;;12.77;10.65;;;;;;;1.27;100.00;98988.50;15293883;19;20070;-88
2023/12/07 08:19:29;;;;;;;11.15;10.05;;;;;;;1.32;100.00;98994.44;15307394;19;20029;-87
2023/12/07 08:24:57;;;;;;;12.10;9.77;;;;;;;1.35;100.00;98997.75;15301381;19;20010;-87
2023/12/07 08:30:28;;;;;;;10.10;9.10;;;;;;;1.45;100.00;99008.72;15267661;19;20490;-87
2023/12/07 08:35:56;;;;;;;10.43;8.98;;;;;;;1.52;100.00;99002.09;15293909;19;20025;-87
2023/12/07 08:41:24;;;;;;;8.63;7.43;;;;;;;1.60;100.00;99006.94;15282607;19;20011;-84
2023/12/07 08:46:49;;;;;;;8.70;7.80;;;;;;;1.67;100.00;99010.09;15281948;19;20022;-88
2023/12/07 08:52:13;;;;;;;9.20;8.30;;;;;;;1.74;100.00;99014.09;15297551;19;20031;-88
2023/12/07 08:57:59;;;;;;;8.88;7.88;;;;;;;1.81;100.00;99023.44;15296754;19;20025;-86
2023/12/07 09:03:31;;;;;;;8.40;7.60;;;;;;;1.89;100.00;99022.09;15298433;19;20538;-86
2023/12/07 09:08:56;;;;;;;8.88;7.97;;;;;;;1.95;100.00;99032.34;15302080;19;20135;-89
2023/12/07 09:14:26;;;;;;;8.88;7.97;;;;;;;2.02;100.00;99023.09;15306902;19;20022;-87
2023/12/07 09:19:54;;;;;;;9.23;8.32;;;;;;;2.08;100.00;99022.69;15336619;19;20453;-85
2023/12/07 09:25:19;;;;;;;8.50;7.70;;;;;;;2.14;100.00;99013.50;15290158;19;20580;-86
2023/12/07 09:30:47;;;;;;;9.23;8.25;;;;;;;2.21;100.00;99016.66;15284406;19;20367;-86
2023/12/07 09:36:13;;;;;;;8.82;8.02;;;;;;;2.29;100.00;99020.56;15290747;19;20525;-87
2023/12/07 09:41:38;;;;;;;8.98;8.10;;;;;;;2.35;100.00;99021.13;15286440;19;20031;-87
2023/12/07 09:47:05;;;;;;;7.90;7.20;;;;;;;2.41;100.00;99016.28;15285553;19;20010;-88
2023/12/07 09:52:33;;;;;;;8.20;7.15;;;;;;;2.43;100.00;99021.50;15299041;19;20015;-86
2023/12/07 09:58:02;;;;;;;7.60;6.88;;;;;;;2.46;100.00;99014.19;15300479;19;20026;-88
2023/12/07 10:03:33;;;;;;;7.07;6.30;;;;;;;2.50;100.00;99016.66;15293690;19;20021;-86
2023/12/07 10:09:06;;;;;;;7.68;6.88;;;;;;;2.52;100.00;99004.13;15293419;19;20006;-88
2023/12/07 10:14:41;;;;;;;6.20;5.57;;;;;;;2.58;100.00;99009.94;15297134;19;20093;-89
2023/12/07 10:20:23;;;;;;;6.18;5.57;;;;;;;2.64;100.00;99013.13;15309038;19;20038;-87
2023/12/07 10:25:49;;;;;;;6.80;6.05;;;;;;;2.68;100.00;99006.69;15303660;19;20014;-88
2023/12/07 10:31:18;;;;;;;4.72;4.30;;;;;;;2.70;100.00;98996.81;15305252;19;20014;-87
2023/12/07 10:36:47;;;;;;;5.32;4.32;;;;;;;2.67;100.00;98987.19;15308957;19;20022;-87
2023/12/07 10:42:20;;;;;;;6.10;5.50;;;;;;;2.69;100.00;98974.66;15297084;19;20408;-88
2023/12/07 10:47:47;;;;;;;6.65;5.20;;;;;;;2.70;100.00;98971.03;15304259;19;20086;-87
2023/12/07 10:53:20;;;;;;;6.03;5.20;;;;;;;2.73;100.00;98970.84;15330260;19;20006;-91
2023/12/07 10:58:46;;;;;;;5.78;5.05;;;;;;;2.72;100.00;98969.13;15330180;19;20032;-90
2023/12/07 11:04:11;;;;;;;5.75;5.13;;;;;;;2.73;100.00;98957.56;15339901;19;20021;-88
2023/12/07 11:09:45;;;;;;;7.57;4.70;;;;;;;2.78;100.00;98968.72;15295094;19;20086;-89
2023/12/07 11:15:11;;;;;;;6.43;5.45;;;;;;;2.76;100.00;98954.66;15302193;19;20013;-89
2023/12/07 11:20:43;;;;;;;7.32;6.63;;;;;;;2.83;100.00;98943.66;15290646;19;20010;-88
2023/12/07 11:26:12;;;;;;;9.23;8.07;;;;;;;2.81;100.00;98937.56;15291144;19;20019;-89
2023/12/07 11:31:39;;;;;;;8.25;7.38;;;;;;;2.79;100.00;98937.69;15287646;19;20014;-87
2023/12/07 11:37:04;;;;;;;10.85;7.47;;;;;;;2.78;100.00;98936.81;15287501;19;20023;-89
2023/12/07 11:42:40;;;;;;;8.65;7.80;;;;;;;2.80;100.00;98934.06;15289850;19;20533;-89
2023/12/07 11:48:12;;;;;;;8.05;7.25;;;;;;;2.76;100.00;98932.53;15331594;19;20478;-89
2023/12/07 11:53:38;;;;;;;8.25;7.45;;;;;;;2.74;100.00;98930.00;15338570;19;20433;-86
2023/12/07 11:59:06;;;;;;;7.88;7.03;;;;;;;2.70;100.00;98925.81;15320661;19;20026;-88
2023/12/07 12:04:38;;;;;;;7.93;7.07;;;;;;;2.70;100.00;98935.63;15294292;19;20035;-87
2023/12/07 12:10:05;;;;;;;8.27;6.50;;;;;;;2.70;100.00;98928.47;15292265;19;20530;-87
2023/12/07 12:15:33;;;;;;;8.98;7.97;;;;;;;2.74;100.00;98914.03;15290266;19;20454;-87
2023/12/07 12:21:00;;;;;;;8.20;7.40;;;;;;;2.72;100.00;98921.25;15289993;19;20321;-88
2023/12/07 12:26:26;;;;;;;8.30;6.90;;;;;;;2.71;100.00;98914.22;15286991;19;20034;-89
2023/12/07 12:31:53;;;;;;;8.25;7.03;;;;;;;2.73;100.00;98909.66;15290325;19;20010;-88
2023/12/07 12:37:18;;;;;;;7.65;6.95;;;;;;;2.78;100.00;98909.34;15287916;19;20011;-87
2023/12/07 12:42:51;;;;;;;8.43;7.53;;;;;;;2.77;100.00;98919.13;15290555;19;20013;-89
2023/12/07 12:48:18;;;;;;;8.93;7.25;;;;;;;2.75;100.00;98914.88;15287945;19;20023;-88
2023/12/07 12:53:43;;;;;;;8.43;7.38;;;;;;;2.74;100.00;98903.38;15290936;19;20010;-88
2023/12/07 12:59:10;;;;;;;8.85;7.95;;;;;;;2.73;100.00;98904.34;15290423;19;20031;-89
2023/12/07 13:04:37;;;;;;;8.40;7.55;;;;;;;2.72;100.00;98909.75;15285260;19;20021;-87
2023/12/07 13:10:03;;;;;;;9.13;7.50;;;;;;;2.72;100.00;98899.97;15285800;19;20011;-89
2023/12/07 13:15:33;;;;;;;7.80;7.00;;;;;;;2.68;100.00;98893.13;15311336;19;20014;-88
2023/12/07 13:21:02;;;;;;;8.32;7.53;;;;;;;2.65;100.00;98882.69;15295091;19;20019;-88
2023/12/07 13:26:28;;;;;;;8.38;7.20;;;;;;;2.66;100.00;98889.72;15313394;19;20741;-90
2023/12/07 13:31:55;;;;;;;8.77;7.55;;;;;;;2.68;100.00;98892.28;15339104;19;20010;-90
2023/12/07 13:37:25;;;;;;;8.32;7.53;;;;;;;2.66;100.00;98900.34;15353802;19;20018;-90
2023/12/07 13:42:56;;;;;;;9.30;7.25;;;;;;;2.67;100.00;98896.75;15345971;19;20482;-91
2023/12/07 13:48:22;;;;;;;7.78;6.70;;;;;;;2.67;100.00;98907.38;15337170;19;20037;-88
2023/12/07 13:53:55;;;;;;;7.53;6.65;;;;;;;2.63;100.00;98911.22;15332326;19;20019;-88
2023/12/07 13:59:20;;;;;;;7.65;6.68;;;;;;;2.58;100.00;98918.63;15297478;19;20010;-88
2023/12/07 14:04:45;;;;;;;7.78;7.03;;;;;;;2.53;100.00;98905.63;15297783;19;20017;-88
2023/12/07 14:10:13;;;;;;;6.95;6.30;;;;;;;2.51;100.00;98910.16;15292213;19;20032;-91
2023/12/07 14:15:40;;;;;;;7.45;6.40;;;;;;;2.49;100.00;98892.63;15304771;19;20019;-90
2023/12/07 14:21:08;;;;;;;8.27;6.70;;;;;;;2.46;100.00;98899.00;15304664;19;20021;-93
2023/12/07 14:26:54;;;;;;;8.35;6.78;;;;;;;2.44;100.00;98906.22;15306957;19;20019;-57
2023/12/07 14:32:20;;;;;;;7.15;6.35;;;;;;;2.44;100.00;98880.47;15267379;19;20014;-55
2023/12/07 14:37:49;;;;;;;6.88;6.18;;;;;;;2.42;100.00;98879.69;15278729;19;20038;-54
2023/12/07 14:43:24;;;;;;;7.15;5.60;;;;;;;2.39;100.00;98877.25;15257807;19;20035;-63
2023/12/07 14:48:49;;;;;;;6.75;5.72;;;;;;;2.37;100.00;98878.28;15274298;19;20402;-62
2023/12/07 14:54:14;;;;;;;5.85;5.30;;;;;;;2.32;100.00;98873.25;15281098;19;20365;-59
2023/12/07 14:59:49;;;;;;;6.30;5.43;;;;;;;2.29;100.00;98863.69;15276770;19;20032;-63
2023/12/07 15:05:15;;;;;;;7.25;5.97;;;;;;;2.22;100.00;98862.38;15279258;19;20035;-61
2023/12/07 15:10:40;;;;;;;6.18;5.57;;;;;;;2.18;100.00;98858.19;15277012;19;20021;-59
2023/12/07 15:16:08;;;;;;;6.00;5.40;;;;;;;2.17;100.00;98855.66;15274403;19;20014;-65
2023/12/07 15:21:34;;;;;;;6.15;5.55;;;;;;;2.13;100.00;98863.81;15307799;19;20027;-63
2023/12/07 15:26:58;;;;;;;7.85;5.63;;;;;;;2.09;100.00;98870.25;15277516;19;20014;-64
2023/12/07 15:32:25;;;;;;;5.93;5.00;;;;;;;2.04;100.00;98866.19;15285985;19;20021;-64
2023/12/07 15:37:51;;;;;;;6.57;5.40;;;;;;;1.96;100.00;98869.31;15285753;19;20028;-65
2023/12/07 15:43:16;;;;;;;7.40;5.97;;;;;;;1.92;100.00;98878.44;15277450;19;20013;-63
2023/12/07 15:48:45;;;;;;;7.05;6.38;;;;;;;1.89;100.00;98871.50;15278517;19;20443;-65
2023/12/07 15:54:10;;;;;;;7.20;6.50;;;;;;;1.84;100.00;98866.47;15279828;19;20035;-65
2023/12/07 15:59:46;;;;;;;7.28;6.55;;;;;;;1.78;100.00;98864.22;15279777;19;20025;-65
2023/12/07 16:05:14;;;;;;;7.30;6.60;;;;;;;1.75;100.00;98866.22;15274429;19;20018;-64
2023/12/07 16:10:39;;;;;;;7.03;6.30;;;;;;;1.72;100.00;98864.56;15279068;19;20025;-63
2023/12/07 16:16:04;;;;;;;8.30;6.40;;;;;;;1.73;100.00;98876.91;15266814;19;20014;-65
2023/12/07 16:21:33;;;;;;;6.97;6.28;;;;;;;1.75;100.00;98882.16;15266517;19;20014;-65
2023/12/07 16:26:59;;;;;;;8.77;7.68;;;;;;;1.74;100.00;98885.75;15271410;19;20029;-66
2023/12/07 16:32:26;;;;;;;9.70;8.70;;;;;;;1.72;100.00;98885.81;15270666;19;20029;-66
2023/12/07 16:37:53;;;;;;;9.60;8.60;;;;;;;1.69;100.00;98868.28;15270352;19;20010;-66
2023/12/07 16:43:25;;;;;;;9.23;7.97;;;;;;;1.66;100.00;98879.06;15269458;19;20022;-65
2023/12/07 16:48:50;;;;;;;8.85;7.95;;;;;;;1.59;100.00;98888.38;15270434;19;20017;-66
2023/12/07 16:54:17;;;;;;;8.50;7.70;;;;;;;1.50;100.00;98895.09;15258136;19;20025;-65
2023/12/07 16:59:42;;;;;;;8.98;8.07;;;;;;;1.40;100.00;98869.19;15261606;19;20025;-65
2023/12/07 17:05:06;;;;;;;8.98;7.90;;;;;;;1.27;100.00;98866.41;15267992;19;20021;-65
2023/12/07 17:10:34;;;;;;;9.48;8.15;;;;;;;1.13;100.00;98870.72;15267937;19;20030;-65
2023/12/07 17:15:59;;;;;;;10.10;9.10;;;;;;;1.04;100.00;98865.97;15261802;19;20018;-64
2023/12/07 17:21:26;;;;;;;8.80;7.90;;;;;;;0.90;100.00;98854.38;15264599;19;20024;-64
2023/12/07 17:26:53;;;;;;;8.43;7.63;;;;;;;0.77;100.00;98846.28;15260186;19;20043;-65
2023/12/07 17:32:18;;;;;;;9.23;7.55;;;;;;;0.64;100.00;98832.00;15268927;19;20018;-64
2023/12/07 17:37:42;;;;;;;8.30;7.45;;;;;;;0.53;100.00;98835.25;15269583;19;20087;-64
2023/12/07 17:43:09;;;;;;;9.30;8.27;;;;;;;0.42;100.00;98827.06;15265619;19;20467;-64
2023/12/07 17:48:34;;;;;;;9.02;8.13;;;;;;;0.35;100.00;98825.72;15266192;19;20021;-64
2023/12/07 17:53:59;;;;;;;9.20;7.82;;;;;;;0.24;100.00;98821.88;15266340;19;20014;-65
2023/12/07 17:59:26;;;;;;;9.13;7.65;;;;;;;0.14;100.00;98808.28;15263957;19;20007;-65
2023/12/07 18:04:51;;;;;;;8.40;7.30;;;;;;;0.05;100.00;98800.00;15262581;19;20018;-65
2023/12/07 18:10:18;;;;;;;8.70;7.70;;;;;;;-0.03;100.00;98785.38;15264666;19;20077;-64
2023/12/07 18:15:46;;;;;;;8.90;8.00;;;;;;;-0.13;100.00;98776.25;15276756;19;20022;-64
2023/12/07 18:21:15;;;;;;;8.88;7.97;;;;;;;-0.22;100.00;98769.66;15258574;19;20018;-63
2023/12/07 18:26:40;;;;;;;10.70;8.60;;;;;;;-0.29;100.00;98773.59;15279784;19;20094;-65
2023/12/07 18:32:07;;;;;;;10.40;9.27;;;;;;;-0.36;100.00;98756.34;15275231;19;20746;-64
2023/12/07 18:37:33;;;;;;;10.05;9.05;;;;;;;-0.43;100.00;98755.81;15281650;19;20010;-65
2023/12/07 18:43:05;;;;;;;11.43;10.18;;;;;;;-0.49;100.00;98756.13;15273478;19;20067;-65
2023/12/07 18:48:32;;;;;;;11.13;9.93;;;;;;;-0.55;100.00;98743.25;15273226;19;20038;-65
2023/12/07 18:53:57;;;;;;;11.70;9.88;;;;;;;-0.59;100.00;98745.22;15270924;19;20035;-65
2023/12/07 18:59:22;;;;;;;14.77;10.90;;;;;;;-0.65;100.00;98740.25;15279366;19;20101;-63
2023/12/07 19:04:50;;;;;;;12.52;11.23;;;;;;;-0.68;100.00;98730.69;15274701;19;20010;-65
2023/12/07 19:10:15;;;;;;;12.48;10.80;;;;;;;-0.71;100.00;98730.84;15272929;19;20014;-65
2023/12/07 19:15:39;;;;;;;11.75;10.55;;;;;;;-0.75;100.00;98725.78;15271135;19;20050;-65
2023/12/07 19:21:08;;;;;;;13.13;11.38;;;;;;;-0.79;100.00;98719.81;15278303;19;20014;-65
2023/12/07 19:26:32;;;;;;;13.00;10.40;;;;;;;-0.81;100.00;98705.81;15275679;19;20024;-63
2023/12/07 19:31:57;;;;;;;12.85;11.55;;;;;;;-0.83;100.00;98705.03;15272691;19;20014;-66
2023/12/07 19:37:24;;;;;;;13.85;11.82;;;;;;;-0.87;100.00;98699.06;15276802;19;20015;-65
2023/12/07 19:42:49;;;;;;;14.35;12.80;;;;;;;-0.89;100.00;98689.50;15273888;19;20022;-65
2023/12/07 19:48:14;;;;;;;16.23;13.50;;;;;;;-0.91;100.00;98689.56;15274839;19;20018;-64
2023/12/07 19:53:41;;;;;;;14.38;12.98;;;;;;;-0.93;100.00;98687.03;15273469;19;20014;-64
2023/12/07 19:59:06;;;;;;;16.20;14.32;;;;;;;-0.94;100.00;98684.44;15276050;19;20026;-67
2023/12/07 20:04:32;;;;;;;15.90;14.20;;;;;;;-0.94;100.00;98682.66;15267075;19;20017;-69
2023/12/07 20:09:59;;;;;;;18.08;14.45;;;;;;;-0.93;100.00;98667.63;15271485;19;20410;-67
2023/12/07 20:15:24;;;;;;;16.45;14.57;;;;;;;-0.97;100.00;98661.66;15271855;19;20431;-68
2023/12/07 20:20:48;;;;;;;17.30;15.18;;;;;;;-0.99;100.00;98663.53;15271828;19;20014;-68
2023/12/07 20:26:23;;;;;;;18.05;14.95;;;;;;;-1.00;100.00;98661.81;15273485;19;20018;-68
2023/12/07 20:31:48;;;;;;;17.38;15.23;;;;;;;-1.01;100.00;98660.16;15273866;19;20100;-67
2023/12/07 20:37:13;;;;;;;15.93;14.25;;;;;;;-1.00;100.00;98661.81;15265186;19;20518;-68
2023/12/07 20:42:40;;;;;;;15.75;13.88;;;;;;;-1.01;100.00;98649.56;15261530;19;20025;-67
2023/12/07 20:48:05;;;;;;;15.32;13.57;;;;;;;-1.02;100.00;98650.50;15271192;19;20021;-67
2023/12/07 20:53:30;;;;;;;17.77;14.68;;;;;;;-1.02;100.00;98642.56;15269221;19;20018;-67
2023/12/07 20:58:57;;;;;;;17.33;13.90;;;;;;;-1.04;100.00;98633.00;15271220;19;20022;-68
2023/12/07 21:04:22;;;;;;;15.75;14.02;;;;;;;-1.06;100.00;98630.44;15266873;19;20751;-68
2023/12/07 21:09:46;;;;;;;15.93;14.23;;;;;;;-1.08;100.00;98627.00;15265941;19;20020;-68
2023/12/07 21:15:14;;;;;;;16.20;13.63;;;;;;;-1.09;100.00;98635.88;15267729;19;20049;-67
2023/12/07 21:20:39;;;;;;;15.52;13.82;;;;;;;-1.10;100.00;98636.81;15267904;19;20014;-67
2023/12/07 21:26:05;;;;;;;15.75;14.07;;;;;;;-1.13;100.00;98634.34;15265767;19;20015;-66
2023/12/07 21:31:33;;;;;;;14.95;13.45;;;;;;;-1.15;100.00;98620.38;15262359;19;20029;-67
2023/12/07 21:36:58;;;;;;;15.80;13.68;;;;;;;-1.18;100.00;98615.22;15268255;19;20010;-66
2023/12/07 21:42:22;;;;;;;14.63;12.43;;;;;;;-1.18;100.00;98615.22;15261645;19;20078;-66
2023/12/07 21:47:49;;;;;;;14.55;12.98;;;;;;;-1.21;100.00;98604.81;15277843;19;20097;-67
2023/12/07 21:53:21;;;;;;;14.27;12.70;;;;;;;-1.23;100.00;98589.03;15263724;19;20019;-59
2023/12/07 21:58:46;;;;;;;13.73;12.32;;;;;;;-1.25;100.00;98582.97;15279311;19;20018;-57
2023/12/07 22:04:13;;;;;;;13.43;12.02;;;;;;;-1.26;100.00;98603.28;15274467;19;20010;-60
2023/12/07 22:09:39;;;;;;;14.60;12.10;;;;;;;-1.26;100.00;98586.56;15279601;19;20011;-57
2023/12/07 22:15:04;;;;;;;14.13;12.63;;;;;;;-1.28;100.00;98584.00;15271926;19;20374;-59
2023/12/07 22:20:31;;;;;;;15.13;13.52;;;;;;;-1.31;100.00;98573.59;15282625;19;20032;-59
2023/12/07 22:25:56;;;;;;;15.32;12.23;;;;;;;-1.33;100.00;98558.75;15281912;19;20019;-56
2023/12/07 22:31:21;;;;;;;14.65;12.90;;;;;;;-1.36;100.00;98554.50;15273272;19;20022;-57
2023/12/07 22:36:48;;;;;;;14.20;12.70;;;;;;;-1.37;100.00;98546.63;15281935;19;20054;-57
2023/12/07 22:42:13;;;;;;;14.40;12.80;;;;;;;-1.39;100.00;98522.94;15277499;19;20025;-57
2023/12/07 22:47:37;;;;;;;13.23;11.85;;;;;;;-1.42;100.00;98517.81;15277334;19;20014;-58
2023/12/07 22:53:04;;;;;;;13.70;12.30;;;;;;;-1.43;100.00;98516.97;15278198;19;20018;-57
2023/12/07 22:58:29;;;;;;;14.05;12.00;;;;;;;-1.46;100.00;98503.06;15278481;19;20025;-58
2023/12/07 23:03:55;;;;;;;13.07;11.55;;;;;;;-1.49;100.00;98492.69;15275741;19;20024;-58
2023/12/07 23:09:23;;;;;;;12.25;10.95;;;;;;;-1.51;100.00;98486.63;15277611;19;20011;-60
2023/12/07 23:14:48;;;;;;;11.85;10.55;;;;;;;-1.53;100.00;98472.63;15272263;19;20021;-59
2023/12/07 23:20:16;;;;;;;11.98;10.68;;;;;;;-1.57;100.00;98462.22;15273799;19;20347;-60
2023/12/07 23:25:44;;;;;;;12.07;10.77;;;;;;;-1.60;100.00;98457.13;15024356;19;5002043;-59
2023/12/07 23:31:08;;;;;;;11.40;10.30;;;;;;;-1.63;100.00;98445.84;15274894;19;20025;-56
2023/12/07 23:36:33;;;;;;;11.25;10.05;;;;;;;-1.65;100.00;98435.38;15276620;19;20015;-57
2023/12/07 23:42:01;;;;;;;12.13;9.70;;;;;;;-1.68;100.00;98422.34;15276879;19;20021;-56
2023/12/07 23:47:26;;;;;;;11.32;9.93;;;;;;;-1.73;100.00;98404.09;15276557;19;20369;-57
2023/12/07 23:52:51;;;;;;;10.10;9.10;;;;;;;-1.72;100.00;98403.16;15269416;19;20497;-57
2023/12/07 23:58:18;;;;;;;10.25;9.15;;;;;;;-1.76;100.00;98406.06;15276333;19;20109;-53
